createdAt,value
2022-08-28T00:01:51.814Z,100056.00
2022-08-28T00:06:56.765Z,100051.40
2022-08-28T00:12:01.115Z,100050.80
2022-08-28T00:17:05.654Z,100052.60
2022-08-28T00:22:10.123Z,100055.20
2022-08-28T00:27:33.375Z,100050.20
2022-08-28T00:32:37.506Z,100045.60
2022-08-28T00:37:41.669Z,100042.00
2022-08-28T00:42:49.259Z,100038.00
2022-08-28T00:47:54.205Z,100035.20
2022-08-28T00:53:01.773Z,100029.80
2022-08-28T00:58:07.506Z,100030.20
2022-08-28T01:03:11.782Z,100026.80
2022-08-28T01:08:17.448Z,100028.20
2022-08-28T01:13:25.467Z,100025.60
2022-08-28T01:18:30.978Z,100025.00
2022-08-28T01:24:00.942Z,100027.20
2022-08-28T01:29:07.648Z,100023.00
2022-08-28T01:34:13.803Z,100018.20
2022-08-28T01:39:23.829Z,100018.60
2022-08-28T01:44:29.260Z,100017.60
2022-08-28T01:49:33.989Z,100026.40
2022-08-28T01:54:39.084Z,100031.00
2022-08-28T01:59:43.289Z,100027.40
2022-08-28T02:04:48.400Z,100030.80
2022-08-28T02:09:53.189Z,100031.00
2022-08-28T02:14:57.229Z,100032.40
2022-08-28T02:20:01.476Z,100022.00
2022-08-28T02:25:08.717Z,100025.60
2022-08-28T02:30:16.038Z,100024.00
2022-08-28T02:35:23.227Z,100020.80
2022-08-28T02:40:28.272Z,100020.80
2022-08-28T02:45:33.291Z,100015.40
2022-08-28T02:50:37.219Z,100017.40
2022-08-28T02:55:41.832Z,100016.20
2022-08-28T03:00:50.118Z,100013.00
2022-08-28T03:05:54.564Z,100018.40
2022-08-28T03:11:00.129Z,100016.00
2022-08-28T03:16:05.533Z,100013.40
2022-08-28T03:21:11.002Z,100014.00
2022-08-28T03:26:20.457Z,100013.80
2022-08-28T03:31:29.982Z,100012.00
2022-08-28T03:36:35.766Z,100008.40
2022-08-28T03:41:41.020Z,100006.00
2022-08-28T03:46:45.248Z,100011.40
2022-08-28T03:51:50.018Z,100010.80
2022-08-28T03:56:57.092Z,100008.40
2022-08-28T04:02:01.543Z,100011.60
2022-08-28T04:07:05.789Z,100013.20
2022-08-28T04:12:11.276Z,100016.00
2022-08-28T04:17:15.182Z,100020.00
2022-08-28T04:22:19.417Z,100018.20
2022-08-28T04:27:23.451Z,100021.40
2022-08-28T04:32:27.610Z,100023.00
2022-08-28T04:37:32.238Z,100017.00
2022-08-28T04:42:36.591Z,100014.00
2022-08-28T04:47:40.921Z,100006.80
2022-08-28T04:52:45.057Z,100000.00
2022-08-28T04:57:49.299Z,99993.60
2022-08-28T05:02:53.242Z,99999.80
2022-08-28T05:07:58.081Z,99995.00
2022-08-28T05:13:06.535Z,99992.00
2022-08-28T05:18:14.549Z,99997.20
2022-08-28T05:23:18.686Z,99999.80
2022-08-28T05:28:26.807Z,100002.20
2022-08-28T05:33:33.621Z,100005.80
2022-08-28T05:38:38.772Z,100001.00
2022-08-28T05:43:42.913Z,100000.60
2022-08-28T05:48:49.185Z,99994.80
2022-08-28T05:53:54.900Z,99996.60
2022-08-28T05:59:02.303Z,99990.00
2022-08-28T06:04:18.192Z,99995.60
2022-08-28T06:09:30.188Z,100002.60
2022-08-28T06:14:36.590Z,100007.00
2022-08-28T06:19:42.340Z,100008.20
2022-08-28T06:24:46.895Z,100003.80
2022-08-28T06:29:51.252Z,100006.00
2022-08-28T06:34:55.270Z,100006.60
2022-08-28T06:39:59.819Z,100010.60
2022-08-28T06:45:05.280Z,100009.80
2022-08-28T06:50:12.360Z,100012.00
2022-08-28T06:55:17.608Z,100015.20
2022-08-28T07:00:22.278Z,100013.00
2022-08-28T07:05:27.119Z,100015.60
2022-08-28T07:10:32.418Z,100018.80
2022-08-28T07:15:41.924Z,100019.60
2022-08-28T07:20:57.208Z,100023.60
2022-08-28T07:26:07.279Z,100020.80
2022-08-28T07:31:26.577Z,100020.60
2022-08-28T07:36:31.167Z,100019.60
2022-08-28T07:41:39.798Z,100026.40
2022-08-28T07:46:45.165Z,100023.00
2022-08-28T07:51:49.615Z,100016.40
2022-08-28T07:56:58.654Z,100014.80
2022-08-28T08:02:03.085Z,100016.60
2022-08-28T08:07:08.710Z,100014.60
2022-08-28T08:12:15.038Z,100013.20
2022-08-28T08:17:20.209Z,100010.80
2022-08-28T08:22:25.777Z,100012.80
2022-08-28T08:27:30.875Z,100013.80
2022-08-28T08:32:35.791Z,100011.60
2022-08-28T08:37:42.385Z,100013.40
2022-08-28T08:42:51.737Z,100017.60
2022-08-28T08:47:57.105Z,100016.60
2022-08-28T08:53:23.971Z,100011.60
2022-08-28T08:58:44.932Z,100010.20
2022-08-28T09:04:07.174Z,100014.40
2022-08-28T09:09:57.615Z,100022.40
2022-08-28T09:15:21.405Z,100023.20
2022-08-28T09:20:32.487Z,100023.80
2022-08-28T09:25:52.612Z,100024.80
2022-08-28T09:31:04.270Z,100027.00
2022-08-28T09:36:33.135Z,100024.80
2022-08-28T09:42:37.725Z,100024.60
2022-08-28T09:47:55.573Z,100024.60
2022-08-28T09:53:18.695Z,100018.40
2022-08-28T09:58:39.111Z,100013.60
2022-08-28T10:03:58.680Z,100014.60
2022-08-28T10:09:13.524Z,100017.20
2022-08-28T10:14:44.769Z,100020.40
2022-08-28T10:19:54.634Z,100018.20
2022-08-28T10:25:34.918Z,100017.40
2022-08-28T10:31:02.719Z,100014.00
2022-08-28T10:36:34.555Z,100011.00
2022-08-28T10:41:51.619Z,100014.60
2022-08-28T10:46:58.588Z,100014.20
2022-08-28T10:52:27.995Z,100011.80
2022-08-28T10:57:58.060Z,100014.60
2022-08-28T11:03:27.020Z,100019.60
2022-08-28T11:08:40.237Z,100021.40
2022-08-28T11:14:00.977Z,100022.80
2022-08-28T11:19:38.746Z,100020.00
2022-08-28T11:25:04.298Z,100017.20
2022-08-28T11:30:12.059Z,100015.20
2022-08-28T11:35:31.103Z,100011.40
2022-08-28T11:40:35.214Z,100014.20
2022-08-28T11:45:51.173Z,100011.80
2022-08-28T11:51:07.462Z,100011.60
2022-08-28T11:56:32.679Z,100011.00
2022-08-28T12:01:38.571Z,100013.40
2022-08-28T12:06:52.609Z,100011.00
2022-08-28T12:12:10.367Z,100011.00
2022-08-28T12:17:31.453Z,100020.20
2022-08-28T12:23:24.638Z,100017.80
2022-08-28T12:29:03.167Z,100016.00
2022-08-28T12:34:16.868Z,100021.00
2022-08-28T12:39:21.198Z,100014.00
2022-08-28T12:44:33.688Z,100011.00
2022-08-28T12:49:42.458Z,100024.00
2022-08-28T12:54:50.406Z,100020.40
2022-08-28T13:00:07.600Z,100015.40
2022-08-28T13:05:29.738Z,100018.20
2022-08-28T13:10:49.751Z,100012.20
2022-08-28T13:15:57.379Z,99998.20
2022-08-28T13:21:32.475Z,100008.00
2022-08-28T13:26:39.503Z,100003.20
2022-08-28T13:31:44.841Z,99994.20
2022-08-28T13:37:03.917Z,99990.60
2022-08-28T13:42:16.922Z,99987.80
2022-08-28T13:47:21.616Z,99998.80
2022-08-28T13:52:25.898Z,99999.00
2022-08-28T13:57:31.416Z,99991.20
2022-08-28T14:03:02.698Z,99990.80
2022-08-28T14:08:07.129Z,99985.80
2022-08-28T14:13:11.362Z,99976.00
2022-08-28T14:18:20.589Z,99972.00
2022-08-28T14:23:27.318Z,99971.00
2022-08-28T14:28:32.264Z,99975.80
2022-08-28T14:33:37.883Z,99976.40
2022-08-28T14:38:43.409Z,99978.80
2022-08-28T14:43:51.546Z,99978.00
2022-08-28T14:49:00.640Z,99967.20
2022-08-28T14:54:06.929Z,99959.40
2022-08-28T14:59:18.457Z,99946.00
2022-08-28T15:04:26.657Z,99971.40
2022-08-28T15:09:38.472Z,99959.80
2022-08-28T15:14:54.694Z,99950.20
2022-08-28T15:20:02.740Z,99956.20
2022-08-28T15:25:07.901Z,99954.40
2022-08-28T15:30:13.501Z,99972.00
2022-08-28T15:35:19.685Z,99967.20
2022-08-28T15:40:46.301Z,99967.20
2022-08-28T15:45:50.814Z,99969.60
2022-08-28T15:50:55.189Z,99965.40
2022-08-28T15:55:59.740Z,99977.00
2022-08-28T16:01:06.772Z,99994.40
2022-08-28T16:06:18.930Z,100011.40
2022-08-28T16:11:24.046Z,100015.40
2022-08-28T16:16:28.687Z,100028.60
2022-08-28T16:21:34.441Z,100040.00
2022-08-28T16:26:38.821Z,100055.00
2022-08-28T16:31:42.841Z,100071.80
2022-08-28T16:36:50.840Z,100089.60
2022-08-28T16:41:54.981Z,100103.80
2022-08-28T16:46:59.248Z,100120.00
2022-08-28T16:52:03.835Z,100121.60
2022-08-28T16:57:08.002Z,100109.80
2022-08-28T17:02:16.390Z,100096.20
2022-08-28T17:07:22.145Z,100087.80
2022-08-28T17:12:31.677Z,100070.00
2022-08-28T17:17:36.923Z,100049.00
2022-08-28T17:22:41.900Z,100054.60
2022-08-28T17:27:46.429Z,100069.20
2022-08-28T17:32:52.592Z,100079.60
2022-08-28T17:37:58.118Z,100083.00
2022-08-28T17:43:16.948Z,100080.40
2022-08-28T17:48:23.290Z,100081.60
2022-08-28T17:53:29.547Z,100087.40
2022-08-28T17:58:37.518Z,100095.80
2022-08-28T18:03:45.749Z,100112.60
2022-08-28T18:09:04.526Z,100120.20
2022-08-28T18:14:10.075Z,100117.80
2022-08-28T18:19:17.604Z,100120.40
2022-08-28T18:24:22.165Z,100122.80
2022-08-28T18:29:26.900Z,100127.00
2022-08-28T18:34:32.797Z,100130.60
2022-08-28T18:39:40.119Z,100131.60
2022-08-28T18:44:46.517Z,100129.00
2022-08-28T18:49:51.655Z,100130.00
2022-08-28T18:55:10.596Z,100128.80
2022-08-28T19:00:16.887Z,100132.40
2022-08-28T19:05:22.076Z,100133.40
2022-08-28T19:10:35.090Z,100126.20
2022-08-28T19:15:44.549Z,100121.00
2022-08-28T19:20:52.292Z,100124.80
2022-08-28T19:25:57.838Z,100120.20
2022-08-28T19:31:07.248Z,100116.80
2022-08-28T19:36:18.160Z,100118.40
2022-08-28T19:41:24.505Z,100115.80
2022-08-28T19:46:30.695Z,100111.40
2022-08-28T19:51:39.197Z,100113.60
2022-08-28T19:56:43.973Z,100116.20
2022-08-28T20:01:48.888Z,100125.60
2022-08-28T20:06:53.045Z,100129.80
2022-08-28T20:11:57.184Z,100128.20
2022-08-28T20:17:02.249Z,100124.40
2022-08-28T20:22:07.221Z,100136.40
2022-08-28T20:27:11.564Z,100141.20
2022-08-28T20:32:21.583Z,100146.40
2022-08-28T20:37:32.044Z,100151.20
2022-08-28T20:42:39.776Z,100157.20
2022-08-28T20:47:44.929Z,100160.20
2022-08-28T20:52:49.307Z,100163.40
2022-08-28T20:57:53.546Z,100169.60
2022-08-28T21:02:58.407Z,100177.40
2022-08-28T21:08:03.495Z,100186.00
2022-08-28T21:13:12.945Z,100192.00
2022-08-28T21:18:22.539Z,100212.60
2022-08-28T21:23:33.617Z,100230.20
2022-08-28T21:28:42.393Z,100250.40
2022-08-28T21:33:50.577Z,100261.00
2022-08-28T21:38:58.888Z,100278.20
2022-08-28T21:44:05.677Z,100289.60
2022-08-28T21:49:13.724Z,100299.20
2022-08-28T21:54:21.054Z,100311.00
2022-08-28T21:59:34.161Z,100314.00
2022-08-28T22:04:46.777Z,100316.60
2022-08-28T22:09:53.949Z,100311.40
2022-08-28T22:15:01.939Z,100288.80
2022-08-28T22:20:13.232Z,100274.00
2022-08-28T22:25:25.001Z,100267.20
2022-08-28T22:30:35.953Z,100279.80
2022-08-28T22:35:43.909Z,100256.20
2022-08-28T22:40:50.806Z,100249.00
2022-08-28T22:45:56.757Z,100228.40
2022-08-28T22:51:13.265Z,100211.00
2022-08-28T22:56:18.816Z,100201.20
2022-08-28T23:01:25.978Z,100190.00
2022-08-28T23:06:32.343Z,100178.80
2022-08-28T23:11:37.944Z,100174.80
2022-08-28T23:16:42.422Z,100182.40
2022-08-28T23:21:47.159Z,100192.60
2022-08-28T23:26:52.016Z,100198.00
2022-08-28T23:31:56.824Z,100206.60
2022-08-28T23:37:02.738Z,100219.60
2022-08-28T23:42:07.276Z,100222.20
2022-08-28T23:47:12.151Z,100224.00
2022-08-28T23:52:17.534Z,100224.20
2022-08-28T23:57:21.914Z,100231.00
